Time;durP1;ratioP1;P1;durP2;ratioP2;P2;SDS_P1;SDS_P2;PMS_P1;PMS_P2;Temp;Humidity;BMP_temperature;BMP_pressure;BME280_temperature;BME280_humidity;BME280_pressure;Samples;Min_cycle;Max_cycle;Signal;HPM_P1;HPM_P2
2022/10/25 00:02:33;;;;;;;61.30;27.80;;;13.70;99.90;;;;;;6312268;22;20052;-89
2022/10/25 00:04:59;;;;;;;56.58;23.98;;;13.70;99.90;;;;;;6312322;22;20082;-84
2022/10/25 00:07:25;;;;;;;57.92;23.45;;;13.70;99.90;;;;;;6312005;22;19995;-86
2022/10/25 00:09:50;;;;;;;54.78;22.00;;;13.60;99.90;;;;;;6312267;22;19995;-88
2022/10/25 00:12:17;;;;;;;55.90;22.15;;;13.70;99.90;;;;;;6338528;22;20003;-87
2022/10/25 00:14:43;;;;;;;54.42;23.40;;;13.60;99.90;;;;;;6312147;22;19998;-85
2022/10/25 00:17:09;;;;;;;52.22;21.10;;;13.60;99.90;;;;;;6312636;22;20002;-86
2022/10/25 00:19:35;;;;;;;52.20;22.40;;;13.60;99.90;;;;;;6314426;22;19991;-85
2022/10/25 00:22:01;;;;;;;60.60;27.15;;;13.70;99.90;;;;;;6313370;22;20006;-85
2022/10/25 00:24:27;;;;;;;60.90;26.25;;;13.70;99.90;;;;;;6312256;22;20310;-87
2022/10/25 00:26:53;;;;;;;58.97;23.15;;;13.60;99.90;;;;;;6312321;22;19999;-87
2022/10/25 00:29:18;;;;;;;52.95;22.52;;;13.50;99.90;;;;;;6339185;22;19998;-87
2022/10/25 00:31:44;;;;;;;56.35;24.25;;;13.50;99.90;;;;;;6311976;22;20362;-84
2022/10/25 00:34:10;;;;;;;54.15;24.20;;;13.40;99.90;;;;;;6311869;22;20046;-90
2022/10/25 00:36:36;;;;;;;50.33;24.95;;;13.40;99.90;;;;;;6311843;22;20399;-85
2022/10/25 00:39:02;;;;;;;55.72;24.88;;;13.40;99.90;;;;;;6311911;22;19995;-87
2022/10/25 00:41:31;;;;;;;52.53;25.15;;;13.50;99.90;;;;;;6312063;22;19998;-86
2022/10/25 00:44:34;;;;;;;52.03;25.65;;;13.50;99.90;;;;;;6339460;22;19994;-86
2022/10/25 00:47:22;;;;;;;54.33;26.75;;;13.50;99.90;;;;;;6339440;22;20006;-89
2022/10/25 00:49:58;;;;;;;65.82;27.13;;;13.50;99.90;;;;;;6300574;22;19997;-85
2022/10/25 00:52:26;;;;;;;53.30;25.52;;;13.50;99.90;;;;;;6312605;22;20296;-88
2022/10/25 00:54:53;;;;;;;57.15;26.35;;;13.60;99.90;;;;;;6312042;22;19995;-86
2022/10/25 00:57:23;;;;;;;60.15;26.20;;;13.60;99.90;;;;;;6312067;22;19999;-88
2022/10/25 00:59:50;;;;;;;70.00;26.02;;;13.60;99.90;;;;;;6312238;22;20030;-84
2022/10/25 01:02:18;;;;;;;59.97;25.25;;;13.60;99.90;;;;;;6311459;22;20006;-87
2022/10/25 01:04:45;;;;;;;66.82;24.85;;;13.60;99.90;;;;;;6311230;22;20006;-85
2022/10/25 01:07:11;;;;;;;50.03;23.13;;;13.60;99.90;;;;;;6311862;22;20001;-84
2022/10/25 01:09:38;;;;;;;54.40;23.15;;;13.50;99.90;;;;;;6311635;22;20026;-88
2022/10/25 01:12:04;;;;;;;59.20;21.25;;;13.50;99.90;;;;;;6311473;22;20010;-85
2022/10/25 01:14:35;;;;;;;46.40;20.33;;;13.50;99.90;;;;;;6311845;22;20304;-89
2022/10/25 01:17:13;;;;;;;55.17;20.70;;;13.50;99.90;;;;;;6312532;22;20077;-86
2022/10/25 01:20:16;;;;;;;53.95;21.70;;;13.50;99.90;;;;;;6312344;22;20082;-85
2022/10/25 01:22:54;;;;;;;51.35;20.23;;;13.50;99.90;;;;;;6311890;22;20055;-86
2022/10/25 01:25:44;;;;;;;53.13;21.08;;;13.50;99.90;;;;;;6311796;22;20033;-87
2022/10/25 01:28:13;;;;;;;47.08;19.60;;;13.50;99.90;;;;;;6312168;22;20307;-85
2022/10/25 01:31:08;;;;;;;49.33;20.25;;;13.50;99.90;;;;;;6311917;22;19998;-85
2022/10/25 01:33:36;;;;;;;65.70;20.35;;;13.60;99.90;;;;;;6311744;22;20097;-85
2022/10/25 01:36:15;;;;;;;56.53;21.05;;;13.60;99.90;;;;;;6311437;22;20084;-85
2022/10/25 01:38:57;;;;;;;52.28;19.80;;;13.50;99.90;;;;;;6311847;22;19995;-83
2022/10/25 01:41:56;;;;;;;43.35;21.00;;;13.60;99.90;;;;;;6312467;22;19994;-85
2022/10/25 01:44:57;;;;;;;53.05;21.02;;;13.60;99.90;;;;;;6311527;22;19995;-84
2022/10/25 01:47:45;;;;;;;40.50;19.95;;;13.60;99.90;;;;;;6311274;22;20001;-85
2022/10/25 01:50:17;;;;;;;55.28;20.00;;;13.60;99.90;;;;;;6337762;22;20083;-87
2022/10/25 01:52:43;;;;;;;49.60;21.00;;;13.60;99.90;;;;;;6311372;22;20031;-83
2022/10/25 01:55:12;;;;;;;49.25;20.80;;;13.60;99.90;;;;;;6311387;22;19999;-85
2022/10/25 01:57:37;;;;;;;58.35;22.38;;;13.70;99.90;;;;;;6310989;22;20078;-85
2022/10/25 02:00:16;;;;;;;57.97;22.13;;;13.80;99.90;;;;;;6311262;22;20065;-86
2022/10/25 02:03:06;;;;;;;58.83;23.67;;;13.90;99.90;;;;;;6311717;22;20337;-86
2022/10/25 02:06:06;;;;;;;58.75;24.13;;;14.00;99.90;;;;;;6311554;22;20085;-87
2022/10/25 02:08:55;;;;;;;49.72;23.58;;;14.10;99.90;;;;;;6275649;22;19998;-85
2022/10/25 02:11:32;;;;;;;64.20;24.70;;;14.30;99.90;;;;;;6338555;22;20284;-86
2022/10/25 02:14:14;;;;;;;54.05;22.80;;;14.30;99.90;;;;;;6311023;22;20487;-85
2022/10/25 02:16:43;;;;;;;;;;;14.40;99.90;;;;;;6313371;22;19991;-85
2022/10/25 02:19:14;;;;;;;47.97;23.25;;;14.50;99.90;;;;;;6312829;22;19989;-87
2022/10/25 02:21:42;;;;;;;66.75;24.30;;;14.50;99.90;;;;;;6340513;22;19991;-84
2022/10/25 02:24:14;;;;;;;58.08;24.17;;;14.60;99.90;;;;;;6340773;22;20021;-87
2022/10/25 02:26:42;;;;;;;59.40;26.17;;;14.60;99.90;;;;;;6313288;22;20003;-84
2022/10/25 02:29:09;;;;;;;60.78;25.80;;;14.60;99.90;;;;;;6340637;22;20404;-83
2022/10/25 02:31:36;;;;;;;62.55;26.38;;;14.70;99.90;;;;;;6312982;22;19995;-90
2022/10/25 02:34:02;;;;;;;54.22;25.70;;;14.70;99.90;;;;;;6312462;22;20502;-86
2022/10/25 02:36:28;;;;;;;52.17;26.10;;;14.80;99.90;;;;;;6313085;22;19999;-86
2022/10/25 02:38:54;;;;;;;51.72;25.67;;;14.80;99.90;;;;;;6312982;22;20083;-86
2022/10/25 02:41:21;;;;;;;65.63;28.35;;;14.80;99.90;;;;;;6312831;22;20352;-90
2022/10/25 02:43:47;;;;;;;63.97;28.08;;;14.80;99.90;;;;;;6313186;22;19999;-84
2022/10/25 02:46:16;;;;;;;56.25;28.77;;;14.90;99.90;;;;;;6312940;22;20031;-83
2022/10/25 02:48:42;;;;;;;60.70;27.02;;;14.90;99.90;;;;;;6312602;22;19995;-86
2022/10/25 02:51:09;;;;;;;55.63;27.42;;;15.00;99.90;;;;;;6312615;22;19999;-86
2022/10/25 02:53:35;;;;;;;53.97;27.70;;;15.00;99.90;;;;;;6312996;22;20003;-86
2022/10/25 02:56:03;;;;;;;69.70;29.08;;;15.10;99.90;;;;;;6312502;22;20471;-87
2022/10/25 02:58:31;;;;;;;79.82;29.17;;;15.20;99.90;;;;;;6313045;22;20026;-83
2022/10/25 03:00:57;;;;;;;61.03;27.45;;;15.20;99.90;;;;;;6340209;22;20412;-83
2022/10/25 03:03:23;;;;;;;55.95;26.98;;;15.20;99.90;;;;;;6312693;22;19999;-86
2022/10/25 03:05:49;;;;;;;55.20;26.85;;;15.30;99.90;;;;;;6312755;22;20005;-85
2022/10/25 03:08:15;;;;;;;62.00;25.83;;;15.30;99.90;;;;;;6313026;22;20002;-87
2022/10/25 03:10:41;;;;;;;55.65;27.08;;;15.30;99.90;;;;;;6312035;22;20041;-87
2022/10/25 03:13:06;;;;;;;60.80;26.98;;;15.30;99.90;;;;;;6340195;22;20013;-85
2022/10/25 03:15:32;;;;;;;56.38;26.30;;;15.30;99.90;;;;;;6312475;22;19999;-87
2022/10/25 03:17:58;;;;;;;56.63;26.08;;;15.30;99.90;;;;;;6312284;22;19990;-88
2022/10/25 03:20:24;;;;;;;50.58;23.75;;;15.30;99.90;;;;;;6312472;22;19995;-86
2022/10/25 03:22:49;;;;;;;54.72;25.95;;;15.20;99.90;;;;;;6312385;22;20462;-85
2022/10/25 03:25:15;;;;;;;50.67;25.85;;;15.30;99.90;;;;;;6338330;22;20073;-88
2022/10/25 03:27:41;;;;;;;54.30;28.58;;;15.30;99.90;;;;;;6312134;22;19998;-88
2022/10/25 03:30:08;;;;;;;50.22;28.48;;;15.30;99.90;;;;;;6312087;22;19995;-85
2022/10/25 03:32:33;;;;;;;58.50;26.58;;;15.30;99.90;;;;;;6312805;22;20013;-88
2022/10/25 03:34:59;;;;;;;46.38;25.27;;;15.20;99.90;;;;;;6312033;22;20322;-87
2022/10/25 03:37:25;;;;;;;42.97;23.42;;;15.10;99.90;;;;;;6312608;22;20006;-84
2022/10/25 03:39:53;;;;;;;49.60;23.02;;;15.00;99.90;;;;;;6312585;22;20305;-86
2022/10/25 03:42:19;;;;;;;44.47;22.38;;;15.00;99.90;;;;;;6313630;22;20002;-84
2022/10/25 03:44:44;;;;;;;50.45;22.38;;;15.00;99.90;;;;;;6314865;22;20418;-86
2022/10/25 03:47:10;;;;;;;49.78;21.70;;;15.10;99.90;;;;;;6314551;22;19991;-86
2022/10/25 03:49:36;;;;;;;46.60;19.83;;;15.10;99.90;;;;;;6312816;22;19999;-85
2022/10/25 03:52:04;;;;;;;41.63;20.75;;;15.10;99.90;;;;;;6312536;22;20010;-85
2022/10/25 03:54:30;;;;;;;41.13;20.08;;;15.10;99.90;;;;;;6312725;22;19998;-88
2022/10/25 03:56:56;;;;;;;45.53;20.60;;;15.00;99.90;;;;;;6312557;22;19998;-84
2022/10/25 03:59:22;;;;;;;47.78;21.27;;;15.00;99.90;;;;;;6312278;22;20285;-88
2022/10/25 04:01:48;;;;;;;53.50;20.52;;;15.00;99.90;;;;;;6312490;22;19998;-86
2022/10/25 04:04:13;;;;;;;48.92;19.80;;;15.00;99.90;;;;;;6311937;22;20071;-86
2022/10/25 04:06:39;;;;;;;41.22;20.90;;;15.00;99.90;;;;;;6311918;22;20016;-84
2022/10/25 04:09:06;;;;;;;47.45;20.90;;;15.00;99.90;;;;;;6339333;22;20044;-88
2022/10/25 04:11:32;;;;;;;48.10;21.33;;;15.00;99.90;;;;;;6311819;22;20005;-86
2022/10/25 04:13:58;;;;;;;52.65;22.05;;;14.90;99.90;;;;;;6312029;22;20047;-86
2022/10/25 04:16:25;;;;;;;50.47;22.35;;;14.90;99.90;;;;;;6311939;22;20049;-85
2022/10/25 04:18:56;;;;;;;53.50;22.05;;;14.80;99.90;;;;;;6339813;22;19991;-84
2022/10/25 04:21:22;;;;;;;50.30;21.88;;;14.70;99.90;;;;;;6312060;22;19991;-87
2022/10/25 04:23:51;;;;;;;44.30;22.77;;;14.70;99.90;;;;;;6311867;22;20073;-85
2022/10/25 04:26:18;;;;;;;43.80;23.23;;;14.70;99.90;;;;;;6311802;22;20037;-86
2022/10/25 04:28:49;;;;;;;50.35;23.08;;;14.60;99.90;;;;;;6312114;22;20027;-86
2022/10/25 04:31:15;;;;;;;43.35;21.75;;;14.60;99.90;;;;;;6311929;22;20052;-86
2022/10/25 04:33:41;;;;;;;47.85;22.33;;;14.50;99.90;;;;;;6339436;22;20007;-86
2022/10/25 04:36:07;;;;;;;43.22;22.92;;;14.50;99.90;;;;;;6311712;22;20034;-86
2022/10/25 04:38:33;;;;;;;55.17;24.00;;;14.50;99.90;;;;;;6311783;22;20005;-88
2022/10/25 04:41:00;;;;;;;45.55;22.70;;;14.50;99.90;;;;;;6311710;22;20358;-88
2022/10/25 04:43:28;;;;;;;51.47;23.02;;;14.50;99.90;;;;;;6311926;22;20002;-86
2022/10/25 04:45:54;;;;;;;50.47;23.15;;;14.50;99.90;;;;;;6311728;22;20019;-87
2022/10/25 04:48:20;;;;;;;45.53;22.90;;;14.50;99.90;;;;;;6311740;22;20055;-86
2022/10/25 04:50:46;;;;;;;59.70;24.02;;;14.50;99.90;;;;;;6311864;22;20272;-85
2022/10/25 04:53:12;;;;;;;50.47;23.40;;;14.40;99.90;;;;;;6311765;22;20002;-85
2022/10/25 04:55:38;;;;;;;55.05;24.67;;;14.50;99.90;;;;;;6311706;22;20006;-85
2022/10/25 04:58:04;;;;;;;48.03;24.55;;;14.50;99.90;;;;;;6311740;22;20439;-87
2022/10/25 05:00:30;;;;;;;48.65;24.67;;;14.50;99.90;;;;;;6311634;22;20411;-87
2022/10/25 05:02:56;;;;;;;45.33;24.55;;;14.60;99.90;;;;;;6311322;22;20002;-86
2022/10/25 05:05:24;;;;;;;53.80;23.33;;;14.60;99.90;;;;;;6311719;22;19999;-88
2022/10/25 05:07:49;;;;;;;51.47;23.13;;;14.60;99.90;;;;;;6311733;22;20002;-85
2022/10/25 05:10:16;;;;;;;54.03;23.98;;;14.60;99.90;;;;;;6311442;22;20281;-87
2022/10/25 05:12:42;;;;;;;52.55;24.63;;;14.60;99.90;;;;;;6311430;22;20006;-86
2022/10/25 05:15:09;;;;;;;50.78;23.67;;;14.60;99.90;;;;;;6311271;22;19995;-87
2022/10/25 05:17:38;;;;;;;51.47;23.90;;;14.60;99.90;;;;;;6311864;22;20014;-84
2022/10/25 05:20:05;;;;;;;66.07;24.80;;;14.60;99.90;;;;;;6311446;22;20002;-86
2022/10/25 05:22:31;;;;;;;52.40;25.00;;;14.60;99.90;;;;;;6311299;22;19998;-85
2022/10/25 05:24:56;;;;;;;51.17;24.70;;;14.50;99.90;;;;;;6311442;22;20423;-88
2022/10/25 05:27:24;;;;;;;57.17;26.08;;;14.50;99.90;;;;;;6285817;22;20372;-85
2022/10/25 05:29:49;;;;;;;49.20;24.48;;;14.50;99.90;;;;;;6310939;22;19995;-86
2022/10/25 05:32:15;;;;;;;51.08;24.65;;;14.60;99.90;;;;;;6311837;22;20033;-88
2022/10/25 05:34:41;;;;;;;61.10;24.42;;;14.60;99.90;;;;;;6311305;22;20014;-87
2022/10/25 05:37:07;;;;;;;49.80;24.40;;;14.60;99.90;;;;;;6310555;22;20010;-86
2022/10/25 05:39:32;;;;;;;49.92;23.92;;;14.60;99.90;;;;;;6311104;22;20006;-86
2022/10/25 05:41:59;;;;;;;52.45;23.70;;;14.70;99.90;;;;;;6311284;22;20007;-85
2022/10/25 05:44:25;;;;;;;46.42;23.42;;;14.70;99.90;;;;;;6338922;22;19991;-88
2022/10/25 05:46:51;;;;;;;57.10;23.10;;;14.80;99.90;;;;;;6311431;22;20064;-85
2022/10/25 05:49:16;;;;;;;51.38;24.83;;;14.90;99.90;;;;;;6311805;22;19995;-85
2022/10/25 05:51:42;;;;;;;51.72;21.05;;;14.90;99.90;;;;;;6312796;22;20017;-84
2022/10/25 05:54:13;;;;;;;45.83;22.33;;;15.00;99.90;;;;;;6313260;22;20406;-87
2022/10/25 05:56:40;;;;;;;55.93;22.87;;;15.00;99.90;;;;;;6312703;22;19995;-87
2022/10/25 05:59:12;;;;;;;47.55;23.45;;;15.00;99.90;;;;;;6313106;22;19994;-84
2022/10/25 06:01:40;;;;;;;47.45;24.33;;;15.10;99.90;;;;;;6313379;22;19999;-84
2022/10/25 06:04:06;;;;;;;49.10;23.42;;;15.10;99.90;;;;;;6313251;22;20002;-85
2022/10/25 06:06:32;;;;;;;56.47;23.65;;;15.10;99.90;;;;;;6340612;22;20022;-89
2022/10/25 06:08:59;;;;;;;54.33;24.95;;;15.10;99.90;;;;;;6313004;22;19991;-86
2022/10/25 06:11:26;;;;;;;49.85;23.40;;;15.20;99.90;;;;;;6312584;22;20342;-87
2022/10/25 06:13:52;;;;;;;54.38;24.00;;;15.20;99.90;;;;;;6312932;22;20021;-84
2022/10/25 06:16:19;;;;;;;51.47;25.08;;;15.30;99.90;;;;;;6313112;22;19994;-87
2022/10/25 06:18:45;;;;;;;48.78;24.23;;;15.30;99.90;;;;;;6313166;22;20299;-86
2022/10/25 06:21:16;;;;;;;44.65;24.25;;;15.30;99.90;;;;;;6313394;22;20458;-87
2022/10/25 06:23:43;;;;;;;49.07;24.17;;;15.40;99.90;;;;;;6313851;22;20407;-88
2022/10/25 06:26:12;;;;;;;48.30;22.02;;;15.50;99.90;;;;;;6313140;22;19999;-86
2022/10/25 06:28:38;;;;;;;51.92;22.60;;;15.50;99.90;;;;;;6313461;22;19995;-85
2022/10/25 06:31:15;;;;;;;44.33;22.65;;;15.60;99.90;;;;;;6340913;22;20469;-86
2022/10/25 06:33:42;;;;;;;38.05;21.30;;;15.70;99.90;;;;;;6313129;22;20014;-87
2022/10/25 06:36:19;;;;;;;46.97;21.60;;;15.80;99.90;;;;;;6312773;22;20064;-85
2022/10/25 06:38:46;;;;;;;35.28;21.25;;;16.00;99.90;;;;;;6313245;22;19994;-87
2022/10/25 06:41:19;;;;;;;42.45;20.63;;;16.00;99.90;;;;;;6340329;22;19994;-83
2022/10/25 06:43:46;;;;;;;51.53;22.00;;;16.10;99.90;;;;;;6340848;22;20002;-86
2022/10/25 06:46:32;;;;;;;39.65;20.98;;;16.10;99.90;;;;;;6340446;22;19987;-86
2022/10/25 06:49:00;;;;;;;52.50;22.98;;;16.10;99.90;;;;;;6313080;22;19998;-86
2022/10/25 06:51:27;;;;;;;41.45;22.30;;;16.10;99.90;;;;;;6340630;22;20069;-85
2022/10/25 06:53:54;;;;;;;48.63;22.40;;;16.20;99.90;;;;;;6313033;22;20419;-88
2022/10/25 06:56:20;;;;;;;61.78;28.48;;;16.20;99.90;;;;;;6313059;22;20026;-86
2022/10/25 06:58:45;;;;;;;52.75;28.50;;;16.20;99.90;;;;;;6312859;22;20002;-87
2022/10/25 07:01:16;;;;;;;51.50;23.08;;;16.10;99.90;;;;;;6340321;22;20456;-87
2022/10/25 07:03:42;;;;;;;53.22;23.98;;;16.10;99.90;;;;;;6313239;22;20025;-88
2022/10/25 07:06:10;;;;;;;47.15;20.88;;;16.10;99.90;;;;;;6312868;22;19994;-85
2022/10/25 07:08:38;;;;;;;41.85;20.50;;;16.10;99.90;;;;;;6312582;22;20300;-86
2022/10/25 07:11:05;;;;;;;41.58;20.27;;;16.10;99.90;;;;;;6312560;22;20001;-86
2022/10/25 07:13:32;;;;;;;36.55;18.13;;;16.20;99.90;;;;;;6311761;22;20007;-86
2022/10/25 07:16:05;;;;;;;41.50;18.70;;;16.10;99.90;;;;;;6312036;22;20052;-86
2022/10/25 07:18:32;;;;;;;47.15;20.50;;;16.20;99.90;;;;;;6340034;22;20020;-85
2022/10/25 07:21:03;;;;;;;44.63;19.92;;;16.30;99.90;;;;;;6312697;22;20074;-87
2022/10/25 07:23:29;;;;;;;42.35;18.95;;;16.30;99.90;;;;;;6312867;22;20002;-87
2022/10/25 07:25:56;;;;;;;45.20;21.02;;;16.40;99.90;;;;;;6339941;22;20014;-89
2022/10/25 07:28:22;;;;;;;42.20;20.10;;;16.40;99.90;;;;;;6312436;22;19997;-86
2022/10/25 07:30:48;;;;;;;44.03;19.02;;;16.50;99.90;;;;;;6312493;22;20008;-87
2022/10/25 07:33:15;;;;;;;44.67;18.67;;;16.70;99.90;;;;;;6312465;22;20006;-87
2022/10/25 07:35:45;;;;;;;40.45;17.92;;;16.80;99.90;;;;;;6311990;22;20033;-82
2022/10/25 07:38:11;;;;;;;42.50;17.52;;;16.90;99.90;;;;;;6340238;22;20074;-85
2022/10/25 07:40:37;;;;;;;37.80;18.45;;;17.00;99.90;;;;;;6312532;22;20002;-85
2022/10/25 07:43:03;;;;;;;43.70;20.25;;;17.10;99.90;;;;;;6312374;22;20003;-86
2022/10/25 07:45:29;;;;;;;46.00;20.25;;;17.30;99.90;;;;;;6312507;22;20006;-86
2022/10/25 07:47:55;;;;;;;53.33;19.38;;;17.50;99.90;;;;;;6312439;22;19995;-86
2022/10/25 07:50:21;;;;;;;44.55;18.38;;;17.60;99.90;;;;;;6312205;22;20022;-85
2022/10/25 07:52:46;;;;;;;49.22;19.33;;;17.70;99.90;;;;;;6312511;22;20002;-85
2022/10/25 07:55:12;;;;;;;37.40;18.30;;;17.70;99.90;;;;;;6311003;22;19994;-84
2022/10/25 07:57:38;;;;;;;49.55;18.55;;;17.70;99.90;;;;;;6339478;22;20426;-83
2022/10/25 08:00:06;;;;;;;48.97;19.55;;;17.80;99.90;;;;;;6312518;22;19998;-83
2022/10/25 08:02:32;;;;;;;33.33;15.45;;;17.80;99.90;;;;;;6312287;22;19994;-86
2022/10/25 08:04:58;;;;;;;33.33;15.95;;;17.80;99.90;;;;;;6311530;22;19999;-86
2022/10/25 08:07:23;;;;;;;41.08;17.27;;;17.90;99.90;;;;;;6312170;22;20404;-86
2022/10/25 08:09:49;;;;;;;37.47;16.88;;;17.90;99.90;;;;;;6312338;22;20003;-87
2022/10/25 08:12:15;;;;;;;35.00;17.65;;;18.00;99.90;;;;;;6311733;22;20010;-85
2022/10/25 08:14:41;;;;;;;43.10;16.02;;;18.10;99.90;;;;;;6338902;22;19999;-86
2022/10/25 08:17:07;;;;;;;28.27;15.25;;;18.10;99.90;;;;;;6338168;22;20079;-85
2022/10/25 08:19:32;;;;;;;34.97;15.85;;;18.20;99.90;;;;;;6312272;22;19998;-88
2022/10/25 08:21:58;;;;;;;29.38;13.70;;;18.30;99.90;;;;;;6339881;22;19994;-86
2022/10/25 08:24:25;;;;;;;22.15;14.07;;;18.40;99.90;;;;;;6311893;22;19999;-84
2022/10/25 08:26:50;;;;;;;28.65;15.13;;;18.40;99.90;;;;;;6339907;22;19994;-85
2022/10/25 08:29:16;;;;;;;26.58;14.60;;;18.50;99.90;;;;;;6311949;22;19995;-86
2022/10/25 08:31:42;;;;;;;25.63;12.57;;;18.60;99.90;;;;;;6311697;22;20419;-87
2022/10/25 08:34:08;;;;;;;28.25;11.75;;;18.70;99.90;;;;;;6311808;22;19999;-85
2022/10/25 08:36:33;;;;;;;22.85;11.65;;;18.80;99.90;;;;;;6311981;22;19994;-84
2022/10/25 08:38:59;;;;;;;22.38;11.35;;;18.80;99.90;;;;;;6311887;22;19998;-86
2022/10/25 08:41:54;;;;;;;20.88;11.52;;;18.70;99.90;;;;;;6312016;22;20005;-87
2022/10/25 08:44:47;;;;;;;24.50;12.80;;;18.80;99.90;;;;;;6311987;22;19999;-86
2022/10/25 08:47:13;;;;;;;24.33;13.18;;;18.80;99.90;;;;;;6311848;22;20022;-87
2022/10/25 08:50:11;;;;;;;28.95;13.75;;;18.80;99.90;;;;;;6311548;22;20355;-85
2022/10/25 08:52:42;;;;;;;21.63;13.30;;;18.80;99.90;;;;;;6311814;22;20006;-83
2022/10/25 08:55:20;;;;;;;30.92;12.98;;;18.90;99.90;;;;;;6339550;22;20026;-85
2022/10/25 08:57:48;;;;;;;20.15;12.80;;;18.90;99.90;;;;;;6312054;22;20109;-85
2022/10/25 09:00:22;;;;;;;27.52;12.35;;;19.00;99.90;;;;;;6339449;22;19995;-87
2022/10/25 09:02:59;;;;;;;23.70;11.27;;;19.00;99.90;;;;;;6311987;22;20005;-88
2022/10/25 09:06:02;;;;;;;26.52;12.85;;;19.10;99.90;;;;;;6339265;22;20002;-88
2022/10/25 09:08:36;;;;;;;33.20;12.90;;;19.10;99.90;;;;;;6291789;22;20086;-87
2022/10/25 09:11:26;;;;;;;26.25;13.60;;;19.10;99.90;;;;;;6311732;22;19991;-87
2022/10/25 09:13:55;;;;;;;24.70;12.88;;;19.10;99.90;;;;;;6311642;22;20055;-86
2022/10/25 09:16:50;;;;;;;23.63;11.77;;;19.20;99.90;;;;;;6311877;22;19995;-84
2022/10/25 09:19:31;;;;;;;33.47;12.93;;;19.20;99.90;;;;;;6339319;22;19991;-84
2022/10/25 09:22:02;;;;;;;35.37;12.97;;;19.20;99.90;;;;;;6311952;22;19999;-88
2022/10/25 09:25:17;;;;;;;27.75;11.90;;;19.20;99.90;;;;;;6338404;22;20663;-87
2022/10/25 09:27:51;;;;;;;28.67;13.10;;;19.30;99.90;;;;;;6245550;22;20083;-87
2022/10/25 09:30:17;;;;;;;24.23;12.77;;;19.40;99.90;;;;;;6243930;23;19999;-86
2022/10/25 09:32:45;;;;;;;37.78;12.52;;;19.50;99.90;;;;;;6245328;23;20008;-84
2022/10/25 09:35:39;;;;;;;25.38;13.48;;;19.50;99.90;;;;;;6245428;23;20058;-85
2022/10/25 09:38:13;;;;;;;27.70;13.95;;;19.60;99.90;;;;;;6211358;23;20000;-86
2022/10/25 09:41:02;;;;;;;25.17;13.93;;;19.80;99.90;;;;;;6245516;23;20155;-85
2022/10/25 09:43:42;;;;;;;25.17;13.38;;;19.80;99.90;;;;;;6245857;23;20004;-87
2022/10/25 09:46:23;;;;;;;27.25;13.48;;;19.70;99.90;;;;;;6245423;23;19992;-87
2022/10/25 09:49:03;;;;;;;28.63;14.15;;;19.80;99.90;;;;;;6219318;23;20035;-86
2022/10/25 09:51:56;;;;;;;33.80;15.18;;;20.00;99.90;;;;;;6219718;23;19996;-86
2022/10/25 09:54:46;;;;;;;27.98;14.55;;;20.20;99.90;;;;;;6244897;23;20004;-84
2022/10/25 09:57:11;;;;;;;41.45;15.43;;;20.50;99.90;;;;;;6250203;22;20003;-86
2022/10/25 09:59:37;;;;;;;30.02;13.30;;;20.60;99.90;;;;;;6313095;22;20031;-86
2022/10/25 10:02:03;;;;;;;32.20;13.70;;;20.60;99.90;;;;;;6313254;22;20034;-85
2022/10/25 10:04:37;;;;;;;21.55;11.40;;;20.50;99.90;;;;;;6341212;22;20040;-88
2022/10/25 10:07:15;;;;;;;26.85;10.00;;;20.50;99.90;;;;;;6313486;22;20021;-85
2022/10/25 10:09:42;;;;;;;17.50;9.27;;;20.40;99.90;;;;;;6313257;22;20003;-88
2022/10/25 10:12:19;;;;;;;20.60;8.93;;;20.30;99.90;;;;;;6313145;22;20010;-85
2022/10/25 10:14:53;;;;;;;15.93;9.30;;;20.20;99.90;;;;;;6313596;22;20299;-88
2022/10/25 10:17:20;;;;;;;16.52;9.50;;;20.10;99.90;;;;;;6313317;22;20307;-86
2022/10/25 10:20:08;;;;;;;20.55;9.23;;;20.00;99.90;;;;;;6313013;22;20349;-86
2022/10/25 10:22:54;;;;;;;16.77;8.98;;;19.90;99.90;;;;;;6313090;22;20002;-89
2022/10/25 10:25:24;;;;;;;21.48;9.27;;;19.90;99.90;;;;;;6312884;22;20389;-86
2022/10/25 10:27:53;;;;;;;19.73;9.40;;;20.00;99.90;;;;;;6312924;22;20026;-87
2022/10/25 10:30:25;;;;;;;19.02;8.80;;;20.10;99.90;;;;;;6312890;22;20416;-88
2022/10/25 10:32:58;;;;;;;13.13;7.50;;;20.20;99.90;;;;;;6313128;22;20006;-87
2022/10/25 10:35:35;;;;;;;15.15;7.60;;;20.40;99.90;;;;;;6312198;22;20311;-86
2022/10/25 10:38:22;;;;;;;16.38;6.88;;;20.70;99.90;;;;;;6312442;22;19999;-86
2022/10/25 10:40:50;;;;;;;15.80;6.97;;;20.80;99.90;;;;;;6312486;22;20073;-88
2022/10/25 10:43:28;;;;;;;13.57;6.90;;;21.00;99.90;;;;;;6340480;22;19991;-86
2022/10/25 10:46:02;;;;;;;13.65;7.22;;;20.80;99.90;;;;;;6312648;22;20001;-85
2022/10/25 10:48:33;;;;;;;11.50;6.57;;;20.80;99.90;;;;;;6312882;22;20400;-87
2022/10/25 10:50:59;;;;;;;11.73;7.57;;;20.90;99.90;;;;;;6312579;22;19995;-84
2022/10/25 10:53:31;;;;;;;10.88;6.60;;;21.00;99.90;;;;;;6312731;22;20034;-86
2022/10/25 10:56:04;;;;;;;14.70;7.00;;;21.10;99.90;;;;;;6312428;22;19995;-87
2022/10/25 10:58:40;;;;;;;12.45;6.43;;;21.30;99.90;;;;;;6312665;22;20418;-84
2022/10/25 11:01:27;;;;;;;15.68;7.10;;;21.10;99.90;;;;;;6312817;22;20017;-85
2022/10/25 11:03:56;;;;;;;9.95;6.70;;;21.00;99.90;;;;;;6312884;22;20034;-87
2022/10/25 11:06:32;;;;;;;10.68;6.50;;;21.00;99.90;;;;;;6312491;22;20047;-86
2022/10/25 11:09:24;;;;;;;10.20;6.25;;;20.90;99.90;;;;;;6339965;22;20311;-86
2022/10/25 11:12:13;;;;;;;11.10;6.75;;;21.10;99.90;;;;;;6312549;22;20397;-86
2022/10/25 11:14:39;;;;;;;9.90;6.68;;;21.10;99.90;;;;;;6312662;22;19995;-86
2022/10/25 11:17:11;;;;;;;11.02;6.13;;;21.00;99.90;;;;;;6312576;22;19999;-87
2022/10/25 11:19:38;;;;;;;11.65;6.22;;;;;;;;;;6339790;22;20280;-86
2022/10/25 11:22:30;;;;;;;9.40;5.32;;;21.30;99.90;;;;;;6312578;22;20425;-86
2022/10/25 11:25:02;;;;;;;6.20;5.50;;;;;;;;;;6312566;22;19998;-87
2022/10/25 11:27:28;;;;;;;9.38;6.00;;;;;;;;;;6312372;22;20030;-85
2022/10/25 11:30:00;;;;;;;11.02;6.43;;;21.70;99.90;;;;;;6312599;22;20085;-86
2022/10/25 11:32:45;;;;;;;;;;;21.80;99.90;;;;;;6312947;22;20006;-86
2022/10/25 11:35:38;;;;;;;11.02;6.38;;;21.70;99.90;;;;;;6339848;22;19972;-86
2022/10/25 11:38:33;;;;;;;7.57;6.30;;;21.60;99.90;;;;;;6312475;22;20078;-87
2022/10/25 11:41:31;;;;;;;7.38;5.13;;;21.70;99.90;;;;;;6268806;22;20044;-87
2022/10/25 11:44:12;;;;;;;7.13;6.15;;;22.10;97.70;;;;;;6312466;22;20437;-85
2022/10/25 11:47:04;;;;;;;14.30;7.00;;;;;;;;;;6312009;22;19994;-88
2022/10/25 11:49:47;;;;;;;11.38;5.93;;;;;;;;;;6313002;22;20002;-88
2022/10/25 11:52:14;;;;;;;8.85;6.50;;;;;;;;;;6312630;22;20401;-88
2022/10/25 11:54:56;;;;;;;11.32;7.47;;;;;;;;;;6312300;22;20303;-87
2022/10/25 11:57:25;;;;;;;16.73;9.85;;;;;;;;;;6340272;22;19998;-86
2022/10/25 12:00:01;;;;;;;18.60;11.77;;;;;;;;;;6312632;22;19999;-88
2022/10/25 12:02:30;;;;;;;18.63;12.13;;;;;;;;;;6339953;22;20063;-85
2022/10/25 12:04:56;;;;;;;20.25;12.45;;;;;;;;;;6312528;22;20023;-87
2022/10/25 12:07:26;;;;;;;25.40;15.38;;;;;;;;;;6312427;22;20083;-85
2022/10/25 12:09:52;;;;;;;27.50;16.17;;;;;;;;;;6338334;22;20028;-89
2022/10/25 12:12:21;;;;;;;25.90;15.73;;;;;;;;;;6311927;22;20124;-86
2022/10/25 12:14:50;;;;;;;28.13;16.98;;;;;;;;;;6312347;22;20055;-86
2022/10/25 12:17:30;;;;;;;28.10;16.88;;;;;;;;;;6312148;22;20471;-88
2022/10/25 12:20:01;;;;;;;23.13;15.82;;;;;;;;;;6312195;22;20077;-84
2022/10/25 12:22:34;;;;;;;33.10;16.02;;;;;;;;;;6311825;22;19999;-86
2022/10/25 12:25:13;;;;;;;19.05;9.80;;;;;;;;;;6312391;22;20289;-87
2022/10/25 12:27:39;;;;;;;12.20;7.82;;;;;;;;;;6340003;22;20123;-86
2022/10/25 12:30:16;;;;;;;11.95;6.90;;;;;;;;;;6311985;22;19995;-88
2022/10/25 12:32:45;;;;;;;9.50;5.82;;;;;;;;;;6312090;22;20030;-88
2022/10/25 12:35:22;;;;;;;12.48;5.40;;;;;;;;;;6311659;22;20098;-84
2022/10/25 12:37:54;;;;;;;7.72;6.10;;;;;;;;;;6311562;22;20028;-86
2022/10/25 12:40:22;;;;;;;7.90;6.22;;;;;;;;;;6312006;22;20014;-85
2022/10/25 12:43:05;;;;;;;6.32;4.70;;;22.40;87.20;;;;;;6339900;22;20089;-87
2022/10/25 12:45:37;;;;;;;9.63;5.78;;;22.30;88.20;;;;;;6312101;22;19999;-86
2022/10/25 12:48:06;;;;;;;;;;;22.40;89.70;;;;;;6340290;22;19987;-88
2022/10/25 12:51:11;;;;;;;9.40;5.85;;;22.30;88.80;;;;;;6311799;22;19895;-88
2022/10/25 12:54:04;;;;;;;8.55;6.43;;;22.30;90.60;;;;;;6312151;22;20003;-87
2022/10/25 12:57:07;;;;;;;9.52;6.50;;;22.20;88.80;;;;;;6339597;22;20476;-85
2022/10/25 13:00:13;;;;;;;16.50;6.00;;;22.30;90.50;;;;;;6312067;22;19990;-87
2022/10/25 13:03:02;;;;;;;6.32;5.20;;;22.30;87.80;;;;;;6188193;23;20004;-85